Time;durP1;ratioP1;P1;durP2;ratioP2;P2;SDS_P1;SDS_P2;PMS_P1;PMS_P2;Temp;Humidity;BMP_temperature;BMP_pressure;BME280_temperature;BME280_humidity;BME280_pressure;Samples;Min_cycle;Max_cycle;Signal;HPM_P1;HPM_P2
2022/03/31 00:01:26;;;;;;;17.27;9.18;;;;;;;1.32;100.00;98729.25;5072958;28;20405;-76
2022/03/31 00:03:52;;;;;;;16.65;8.07;;;;;;;1.43;100.00;98722.03;5073872;28;20040;-77
2022/03/31 00:06:17;;;;;;;15.65;8.35;;;;;;;1.48;100.00;98721.94;5073910;28;20032;-76
2022/03/31 00:08:42;;;;;;;16.30;7.20;;;;;;;1.58;100.00;98719.16;5074092;28;20104;-76
2022/03/31 00:11:08;;;;;;;17.33;6.57;;;;;;;1.63;100.00;98715.53;5074018;28;20117;-76
2022/03/31 00:13:34;;;;;;;14.10;6.45;;;;;;;1.67;100.00;98711.97;5073666;28;20035;-76
2022/03/31 00:15:59;;;;;;;15.02;6.78;;;;;;;1.73;100.00;98707.47;5073766;28;20016;-77
2022/03/31 00:18:27;;;;;;;17.30;7.40;;;;;;;1.75;100.00;98705.69;5073697;28;20104;-76
2022/03/31 00:20:52;;;;;;;13.52;6.95;;;;;;;1.81;100.00;98704.69;5073634;28;20039;-76
2022/03/31 00:23:18;;;;;;;19.42;7.20;;;;;;;1.80;100.00;98708.22;5072318;28;20488;-76
2022/03/31 00:25:43;;;;;;;14.63;6.97;;;;;;;1.86;100.00;98706.31;5073463;28;20016;-77
2022/03/31 00:28:08;;;;;;;13.90;7.35;;;;;;;1.87;100.00;98702.81;5073825;28;20377;-76
2022/03/31 00:30:35;;;;;;;15.05;6.93;;;;;;;1.88;100.00;98701.91;5073684;28;20017;-76
2022/03/31 00:33:00;;;;;;;15.50;7.50;;;;;;;1.88;100.00;98706.31;5073523;28;20035;-76
2022/03/31 00:35:26;;;;;;;14.75;7.45;;;;;;;1.91;100.00;98700.13;5073438;28;20020;-76
2022/03/31 00:37:52;;;;;;;17.05;7.78;;;;;;;1.92;100.00;98693.94;5072139;28;20397;-76
2022/03/31 00:40:19;;;;;;;17.00;7.57;;;;;;;1.95;100.00;98686.00;5072100;28;20016;-76
2022/03/31 00:42:51;;;;;;;14.55;7.30;;;;;;;1.98;100.00;98691.19;5073861;28;20077;-76
2022/03/31 00:45:23;;;;;;;12.90;7.00;;;;;;;1.98;100.00;98688.56;5073569;28;20025;-76
2022/03/31 00:47:49;;;;;;;13.07;6.82;;;;;;;1.99;100.00;98693.78;5072001;28;20111;-77
2022/03/31 00:50:16;;;;;;;15.23;7.07;;;;;;;1.94;100.00;98684.25;5073139;28;20016;-76
2022/03/31 00:52:42;;;;;;;12.70;6.55;;;;;;;1.92;100.00;98688.69;5072438;28;20086;-76
2022/03/31 00:55:11;;;;;;;12.80;6.28;;;;;;;1.93;100.00;98682.53;5073150;28;20040;-76
2022/03/31 00:57:37;;;;;;;14.63;6.50;;;;;;;1.93;100.00;98682.53;5073244;28;20035;-76
2022/03/31 01:00:09;;;;;;;15.77;7.97;;;;;;;1.87;100.00;98676.50;5073385;28;20024;-76
2022/03/31 01:02:36;;;;;;;14.48;6.88;;;;;;;1.93;100.00;98675.50;5073052;28;20363;-76
2022/03/31 01:05:02;;;;;;;14.50;7.70;;;;;;;1.86;100.00;98676.50;5071696;28;20016;-76
2022/03/31 01:07:28;;;;;;;14.27;7.10;;;;;;;1.94;100.00;98674.59;5073019;28;20039;-76
2022/03/31 01:09:54;;;;;;;14.88;7.63;;;;;;;1.91;100.00;98669.38;5072951;28;20016;-76
2022/03/31 01:12:20;;;;;;;16.48;7.07;;;;;;;1.96;100.00;98666.69;5073299;28;20037;-76
2022/03/31 01:14:45;;;;;;;16.70;7.03;;;;;;;1.98;100.00;98670.13;5072890;28;20039;-76
2022/03/31 01:17:10;;;;;;;13.85;7.38;;;;;;;1.99;100.00;98666.59;5073226;28;20110;-76
2022/03/31 01:19:36;;;;;;;18.42;7.93;;;;;;;2.00;100.00;98669.22;5073171;28;20031;-76
2022/03/31 01:22:02;;;;;;;15.20;8.15;;;;;;;1.98;100.00;98667.50;5072963;28;20024;-77
2022/03/31 01:24:28;;;;;;;17.35;8.15;;;;;;;1.98;100.00;98664.88;5072852;28;20032;-76
2022/03/31 01:26:54;;;;;;;16.30;7.55;;;;;;;1.96;100.00;98658.78;5071643;28;20023;-76
2022/03/31 01:29:21;;;;;;;16.67;7.30;;;;;;;1.97;100.00;98655.22;5071544;28;20116;-76
2022/03/31 01:31:46;;;;;;;16.98;7.03;;;;;;;1.96;100.00;98656.97;5072997;28;20024;-76
2022/03/31 01:34:12;;;;;;;13.18;6.50;;;;;;;2.01;100.00;98654.28;5072938;28;20043;-76
2022/03/31 01:36:37;;;;;;;12.73;6.30;;;;;;;1.99;100.00;98658.69;5073101;28;20089;-76
2022/03/31 01:39:04;;;;;;;12.63;5.93;;;;;;;2.01;100.00;98655.13;5071558;28;20402;-76
2022/03/31 01:41:29;;;;;;;16.73;6.45;;;;;;;2.01;100.00;98649.00;5073084;28;20431;-76
2022/03/31 01:43:55;;;;;;;16.90;6.28;;;;;;;2.01;100.00;98649.84;5072688;28;20481;-76
2022/03/31 01:46:20;;;;;;;11.68;6.35;;;;;;;2.05;100.00;98650.66;5071478;28;20396;-76
2022/03/31 01:48:46;;;;;;;15.70;6.25;;;;;;;2.04;100.00;98642.78;5071357;28;20073;-76
2022/03/31 01:51:12;;;;;;;13.75;5.78;;;;;;;2.07;100.00;98648.88;5072674;28;20029;-76
2022/03/31 01:53:38;;;;;;;13.23;6.13;;;;;;;2.10;100.00;98643.53;5071144;28;20379;-76
2022/03/31 01:56:04;;;;;;;12.43;6.03;;;;;;;2.08;100.00;98640.09;5071343;28;20039;-76
2022/03/31 01:58:30;;;;;;;11.82;5.20;;;;;;;2.08;100.00;98637.44;5072872;28;20435;-76
2022/03/31 02:00:57;;;;;;;11.38;6.43;;;;;;;2.06;100.00;98631.31;5071337;28;20180;-77
2022/03/31 02:03:23;;;;;;;14.27;6.47;;;;;;;2.08;100.00;98637.44;5073771;28;20024;-76
2022/03/31 02:05:49;;;;;;;11.73;6.47;;;;;;;2.03;100.00;98635.81;5074910;28;20108;-76
2022/03/31 02:08:14;;;;;;;13.68;6.30;;;;;;;2.05;100.00;98626.97;5074938;28;20111;-77
2022/03/31 02:10:39;;;;;;;12.73;5.63;;;;;;;2.03;100.00;98626.16;5074803;28;20020;-77
2022/03/31 02:13:07;;;;;;;14.43;6.28;;;;;;;2.01;100.00;98630.59;5074875;28;20512;-76
2022/03/31 02:15:34;;;;;;;12.65;5.90;;;;;;;1.98;100.00;98628.88;5076039;28;20105;-76
2022/03/31 02:18:02;;;;;;;11.82;6.13;;;;;;;1.97;100.00;98624.50;5076197;28;20036;-77
2022/03/31 02:20:28;;;;;;;17.88;6.82;;;;;;;1.93;100.00;98627.25;5076138;28;20027;-77
2022/03/31 02:22:54;;;;;;;14.00;6.32;;;;;;;1.86;100.00;98624.72;5076163;28;20104;-76
2022/03/31 02:25:19;;;;;;;13.13;6.20;;;;;;;1.84;100.00;98631.78;5075948;28;20107;-77
2022/03/31 02:27:49;;;;;;;11.65;6.03;;;;;;;1.88;100.00;98616.81;5074685;28;20499;-76
2022/03/31 02:30:14;;;;;;;13.57;5.63;;;;;;;1.87;100.00;98621.22;5075690;28;20016;-76
2022/03/31 02:32:42;;;;;;;14.13;6.00;;;;;;;1.83;100.00;98606.34;5074440;28;20025;-76
2022/03/31 02:35:08;;;;;;;12.75;6.70;;;;;;;1.80;100.00;98603.81;5075644;28;20051;-76
2022/03/31 02:37:34;;;;;;;11.10;6.40;;;;;;;1.73;100.00;98602.19;5075735;28;20021;-76
2022/03/31 02:40:00;;;;;;;15.32;6.80;;;;;;;1.73;100.00;98604.81;5075954;28;20442;-77
2022/03/31 02:42:25;;;;;;;13.27;7.47;;;;;;;1.69;100.00;98603.16;5074357;28;20493;-76
2022/03/31 02:44:51;;;;;;;14.52;6.53;;;;;;;1.65;100.00;98595.31;5075420;28;20055;-76
2022/03/31 02:47:16;;;;;;;15.18;7.03;;;;;;;1.63;100.00;98601.53;5075457;28;20094;-75
2022/03/31 02:49:41;;;;;;;12.43;6.43;;;;;;;1.70;100.00;98597.84;5075339;28;20115;-76
2022/03/31 02:52:07;;;;;;;12.50;6.55;;;;;;;1.65;100.00;98590.06;5098054;22;20104;-82
2022/03/31 02:57:18;;;;;;;13.40;6.15;;;;;;;1.64;100.00;98592.75;5078205;28;20059;-83
2022/03/31 02:59:43;;;;;;;11.85;6.40;;;;;;;1.64;100.00;98590.97;5078385;28;20032;-82
2022/03/31 03:02:08;;;;;;;13.82;6.72;;;;;;;1.66;100.00;98586.53;5077184;28;20378;-82
2022/03/31 03:04:34;;;;;;;11.32;6.10;;;;;;;1.61;100.00;98585.78;5074813;28;20392;-83
2022/03/31 03:06:59;;;;;;;12.38;6.30;;;;;;;1.65;100.00;98578.69;5082837;28;20107;-84
2022/03/31 03:09:25;;;;;;;12.85;6.32;;;;;;;1.65;100.00;98579.53;5084853;28;20020;-84
2022/03/31 03:11:50;;;;;;;14.75;6.97;;;;;;;1.67;100.00;98583.03;5083104;28;20044;-84
2022/03/31 03:14:16;;;;;;;12.65;6.93;;;;;;;1.69;100.00;98568.97;5081935;28;20028;-84
2022/03/31 03:16:42;;;;;;;11.15;6.05;;;;;;;1.69;100.00;98579.47;5082654;28;20029;-83
2022/03/31 03:19:07;;;;;;;14.45;6.03;;;;;;;1.65;100.00;98579.53;5081901;28;20025;-82
2022/03/31 03:21:34;;;;;;;12.82;6.60;;;;;;;1.70;100.00;98581.22;5081634;28;20020;-84
2022/03/31 03:24:01;;;;;;;17.67;7.22;;;;;;;1.71;100.00;98577.69;5079754;28;20505;-84
2022/03/31 03:26:26;;;;;;;15.50;6.57;;;;;;;1.75;100.00;98579.38;5080192;28;20036;-84
2022/03/31 03:28:51;;;;;;;11.13;6.40;;;;;;;1.74;100.00;98575.84;5078916;28;20084;-83
2022/03/31 03:31:16;;;;;;;10.40;6.18;;;;;;;1.74;100.00;98582.88;5078873;28;20021;-84
2022/03/31 03:33:42;;;;;;;16.73;7.18;;;;;;;1.73;100.00;98581.13;5079756;28;20021;-82
2022/03/31 03:36:10;;;;;;;15.68;6.50;;;;;;;1.74;100.00;98577.63;5080273;28;20098;-83
2022/03/31 03:38:35;;;;;;;13.35;6.57;;;;;;;1.76;100.00;98581.94;5076324;28;20017;-82
2022/03/31 03:41:01;;;;;;;12.32;6.55;;;;;;;1.77;100.00;98588.97;5075623;28;20031;-83
2022/03/31 03:43:26;;;;;;;14.30;7.43;;;;;;;1.74;100.00;98588.16;5075588;28;20358;-82
2022/03/31 03:45:52;;;;;;;12.75;6.82;;;;;;;1.76;100.00;98581.94;5076156;28;20115;-83
2022/03/31 03:48:17;;;;;;;17.05;6.80;;;;;;;1.82;100.00;98585.34;5076470;28;20028;-82
2022/03/31 03:50:43;;;;;;;16.02;8.82;;;;;;;1.82;100.00;98586.22;5075149;28;20493;-83
2022/03/31 03:53:08;;;;;;;18.80;8.90;;;;;;;1.83;100.00;98576.56;5074902;28;20473;-82
2022/03/31 03:55:39;;;;;;;19.80;7.93;;;;;;;1.89;100.00;98573.78;5077132;28;20043;-84
2022/03/31 03:58:05;;;;;;;13.55;6.78;;;;;;;1.85;100.00;98580.03;5075098;28;20029;-83
2022/03/31 04:00:30;;;;;;;15.63;7.22;;;;;;;1.87;100.00;98583.47;5075817;28;20371;-84
2022/03/31 04:02:56;;;;;;;15.38;7.22;;;;;;;1.84;100.00;98579.16;5076847;28;20024;-83
2022/03/31 04:05:22;;;;;;;14.88;7.40;;;;;;;1.84;100.00;98579.16;5076971;28;20032;-83
2022/03/31 04:07:47;;;;;;;14.20;7.45;;;;;;;1.83;100.00;98577.41;5075645;28;20370;-84
2022/03/31 04:10:13;;;;;;;14.13;7.53;;;;;;;1.84;100.00;98573.88;5075837;28;20016;-84
2022/03/31 04:12:57;;;;;;;16.45;8.55;;;;;;;1.84;100.00;98573.88;5075541;28;20017;-85
2022/03/31 04:15:23;;;;;;;18.05;7.70;;;;;;;1.88;100.00;98578.19;5074079;28;20477;-84
2022/03/31 04:17:48;;;;;;;23.15;8.20;;;;;;;1.91;100.00;98574.59;5075725;28;20037;-84
2022/03/31 04:20:43;;;;;;;17.80;7.82;;;;;;;1.90;100.00;98572.91;5074589;28;20032;-84
2022/03/31 04:23:09;;;;;;;15.45;7.93;;;;;;;1.94;100.00;98578.94;5079856;28;20041;-84
2022/03/31 04:25:34;;;;;;;18.33;8.85;;;;;;;1.94;100.00;98574.53;5081524;28;20023;-84
2022/03/31 04:27:59;;;;;;;16.88;8.23;;;;;;;1.95;100.00;98572.78;5081284;28;20081;-84
2022/03/31 04:30:26;;;;;;;16.65;8.45;;;;;;;1.93;100.00;98571.97;5081625;28;20025;-84
2022/03/31 04:33:03;;;;;;;20.90;9.18;;;;;;;1.93;100.00;98571.97;5078375;28;20020;-84
2022/03/31 04:35:29;;;;;;;20.50;9.65;;;;;;;1.96;100.00;98567.47;5077890;28;20474;-83
2022/03/31 04:37:55;;;;;;;21.08;10.23;;;;;;;1.99;100.00;98571.81;5077383;28;20054;-84
2022/03/31 04:40:20;;;;;;;22.17;10.43;;;;;;;1.98;100.00;98573.59;5077769;28;20025;-84
2022/03/31 04:42:46;;;;;;;23.75;10.55;;;;;;;2.00;100.00;98569.16;5076661;28;20016;-83
2022/03/31 04:45:12;;;;;;;19.30;10.07;;;;;;;2.05;100.00;98570.81;5077939;28;20052;-84
2022/03/31 04:47:38;;;;;;;19.17;9.93;;;;;;;2.07;100.00;98575.13;5076280;28;20103;-83
2022/03/31 04:50:07;;;;;;;19.08;9.38;;;;;;;2.04;100.00;98569.06;5075068;28;20056;-84
2022/03/31 04:52:33;;;;;;;17.17;9.05;;;;;;;2.07;100.00;98563.72;5073666;28;20032;-84
2022/03/31 04:55:05;;;;;;;19.33;9.95;;;;;;;2.04;100.00;98569.94;5073154;28;20029;-86
2022/03/31 04:57:39;;;;;;;18.42;9.90;;;;;;;2.01;100.00;98575.28;5073405;28;20016;-85
2022/03/31 05:00:17;;;;;;;20.95;9.10;;;;;;;2.02;100.00;98571.75;5074812;28;20016;-85
2022/03/31 05:02:46;;;;;;;17.63;8.88;;;;;;;2.01;100.00;98575.28;5072933;28;20028;-83
2022/03/31 05:05:20;;;;;;;18.48;8.98;;;;;;;2.00;100.00;98576.19;5075485;28;20071;-85
2022/03/31 05:07:45;;;;;;;21.88;9.10;;;;;;;2.01;100.00;98576.13;5072253;28;20067;-90
2022/03/31 05:10:11;;;;;;;17.83;9.10;;;;;;;2.11;100.00;98573.31;5073312;28;20052;-91
2022/03/31 05:12:36;;;;;;;16.05;9.77;;;;;;;2.06;100.00;98568.13;5074749;28;20028;-88
2022/03/31 05:15:02;;;;;;;23.67;10.52;;;;;;;2.11;100.00;98568.03;5072176;28;20093;-88
2022/03/31 05:20:52;;;;;;;21.40;10.38;;;;;;;2.24;100.00;98568.63;5070737;28;20060;-86
2022/03/31 05:23:18;;;;;;;27.58;10.93;;;;;;;2.30;100.00;98563.19;5072557;28;20044;-87
2022/03/31 05:25:44;;;;;;;23.83;11.13;;;;;;;2.32;100.00;98568.44;5074103;28;20101;-87
2022/03/31 05:28:11;;;;;;;22.30;11.23;;;;;;;2.34;100.00;98567.50;5073886;28;20100;-87
2022/03/31 05:30:39;;;;;;;27.00;11.10;;;;;;;2.34;100.00;98564.00;5073665;28;20025;-87
2022/03/31 05:33:08;;;;;;;22.60;10.63;;;;;;;2.33;100.00;98563.13;5072811;28;20025;-87
2022/03/31 05:35:33;;;;;;;16.45;9.02;;;;;;;2.38;100.00;98565.66;5071861;28;20070;-87
2022/03/31 05:37:58;;;;;;;20.63;9.32;;;;;;;2.42;100.00;98574.34;5074068;28;20024;-86
2022/03/31 05:40:57;;;;;;;21.30;9.35;;;;;;;2.48;100.00;98573.31;5076363;28;20021;-87
2022/03/31 05:43:15;;;;;;;20.10;9.57;;;;;;;2.49;100.00;98585.59;5074706;28;20094;-87
2022/03/31 05:45:41;;;;;;;17.83;9.55;;;;;;;2.53;100.00;98581.97;5076178;28;20028;-87
2022/03/31 05:48:12;;;;;;;19.25;9.13;;;;;;;2.48;100.00;98581.22;5077043;28;20086;-87
2022/03/31 05:54:05;;;;;;;15.43;8.97;;;;;;;2.66;100.00;98580.78;5057663;28;20043;-86
2022/03/31 05:56:30;;;;;;;20.80;10.35;;;;;;;2.67;100.00;98579.88;5075618;28;20063;-87
2022/03/31 05:58:56;;;;;;;19.40;9.63;;;;;;;2.73;100.00;98578.84;5077351;28;20154;-87
2022/03/31 06:01:27;;;;;;;18.27;10.05;;;;;;;2.75;100.00;98576.19;5077346;28;20024;-88
2022/03/31 06:04:07;;;;;;;20.30;10.00;;;;;;;2.82;100.00;98582.16;5076457;28;20055;-86
2022/03/31 06:07:19;;;;;;;20.25;9.85;;;;;;;2.82;100.00;98583.03;5076060;28;20024;-87
2022/03/31 06:09:43;;;;;;;19.58;10.30;;;;;;;2.86;100.00;98589.09;5075977;28;20024;-85
2022/03/31 06:12:09;;;;;;;20.48;9.77;;;;;;;2.88;100.00;98582.00;5075580;28;20073;-86
2022/03/31 06:15:30;;;;;;;21.77;9.98;;;;;;;2.93;100.00;98585.38;5076029;28;20031;-87
2022/03/31 06:18:28;;;;;;;21.58;11.05;;;;;;;2.92;100.00;98591.56;4994217;28;20042;-86
2022/03/31 06:20:53;;;;;;;23.17;10.05;;;;;;;2.99;100.00;98590.47;5062592;28;20116;-86
2022/03/31 06:23:23;;;;;;;23.80;11.82;;;;;;;2.99;100.00;98590.47;5075527;28;20111;-87
2022/03/31 06:25:48;;;;;;;20.80;11.85;;;;;;;2.96;100.00;98589.72;5075414;28;20036;-86
2022/03/31 06:28:14;;;;;;;27.05;12.15;;;;;;;3.03;100.00;98601.84;5075248;28;20037;-87
2022/03/31 06:30:40;;;;;;;29.50;13.75;;;;;;;3.06;100.00;98600.88;5075008;28;20021;-86
2022/03/31 06:33:05;;;;;;;24.85;13.07;;;;;;;3.18;100.00;98600.56;5074923;28;20021;-87
2022/03/31 06:35:30;;;;;;;23.55;13.68;;;;;;;3.13;100.00;98592.78;5075290;28;20082;-87
2022/03/31 06:37:56;;;;;;;26.27;13.27;;;;;;;3.17;100.00;98596.16;5077618;28;20056;-87
2022/03/31 06:40:21;;;;;;;26.90;13.90;;;;;;;3.22;100.00;98604.00;5075023;28;20025;-87
2022/03/31 06:42:47;;;;;;;33.22;18.30;;;;;;;3.24;100.00;98603.03;5076684;28;20024;-87
2022/03/31 06:45:19;;;;;;;43.78;21.85;;;;;;;3.06;100.00;98592.97;5076442;28;20024;-87
2022/03/31 06:47:45;;;;;;;45.40;23.92;;;;;;;3.10;100.00;98598.13;5075410;28;20024;-87
2022/03/31 06:50:13;;;;;;;42.95;23.30;;;;;;;3.18;100.00;98602.31;5075794;28;20020;-87
2022/03/31 06:52:38;;;;;;;46.88;23.65;;;;;;;3.21;100.00;98592.56;5075292;28;20093;-88
2022/03/31 06:55:04;;;;;;;47.58;24.88;;;;;;;3.16;100.00;98589.19;5077170;28;20524;-87
2022/03/31 06:57:30;;;;;;;45.22;24.17;;;;;;;3.22;100.00;98596.06;5076385;28;20027;-88
2022/03/31 07:00:36;;;;;;;;;;;;;;;;;;;;;
2022/03/31 07:03:02;;;;;;;46.10;23.63;;;;;;;3.35;100.00;98586.06;5075763;28;20032;-87
2022/03/31 07:05:49;;;;;;;44.95;24.15;;;;;;;3.41;100.00;98583.22;5076811;28;20120;-88
2022/03/31 07:08:15;;;;;;;48.13;25.15;;;;;;;3.45;100.00;98581.38;5073049;28;20566;-87
2022/03/31 07:10:41;;;;;;;50.15;25.65;;;;;;;3.50;100.00;98587.38;5074651;28;20024;-88
2022/03/31 07:13:06;;;;;;;48.63;25.17;;;;;;;3.51;100.00;98593.50;5075224;28;20113;-88
2022/03/31 07:15:35;;;;;;;45.17;24.95;;;;;;;3.45;100.00;98591.94;5075530;28;20082;-87
2022/03/31 07:18:04;;;;;;;47.60;25.27;;;;;;;3.59;100.00;98599.44;5074280;28;20020;-88
2022/03/31 07:21:26;;;;;;;47.15;24.95;;;;;;;3.63;100.00;98585.25;5074311;28;20016;-87
2022/03/31 07:23:52;;;;;;;46.85;24.58;;;;;;;3.63;100.00;98595.81;5016332;28;20041;-87
2022/03/31 07:26:24;;;;;;;46.72;23.33;;;;;;;3.76;100.00;98592.81;5065281;28;20148;-87
2022/03/31 07:28:50;;;;;;;47.38;24.83;;;;;;;3.93;100.00;98587.03;5062644;28;20028;-87
2022/03/31 07:31:28;;;;;;;47.55;24.52;;;;;;;4.05;100.00;98591.06;5073594;28;20024;-87
2022/03/31 07:36:39;;;;;;;54.85;25.77;;;;;;;4.11;100.00;98582.97;5064627;28;20037;-87
2022/03/31 07:39:13;;;;;;;50.53;26.75;;;;;;;4.14;100.00;98589.94;5074388;28;20029;-88
2022/03/31 07:41:38;;;;;;;45.83;24.52;;;;;;;4.19;100.00;98588.00;5074826;28;20024;-87
2022/03/31 07:44:03;;;;;;;46.35;23.90;;;;;;;4.05;100.00;98588.44;5074911;28;20406;-87
2022/03/31 07:46:32;;;;;;;44.65;24.30;;;;;;;4.11;100.00;98576.81;5074110;28;20112;-87
2022/03/31 07:48:59;;;;;;;49.60;26.05;;;;;;;4.16;100.00;98580.19;5076610;28;20020;-88
2022/03/31 07:51:26;;;;;;;47.08;24.27;;;;;;;4.12;100.00;98575.91;5073501;28;20029;-87
2022/03/31 07:53:51;;;;;;;47.30;25.60;;;;;;;4.20;100.00;98586.25;5075886;28;20036;-87
2022/03/31 07:56:16;;;;;;;47.63;24.55;;;;;;;4.24;100.00;98582.56;5073900;28;20032;-87
2022/03/31 07:58:42;;;;;;;43.90;23.85;;;;;;;4.37;100.00;98585.69;5073546;28;20021;-87
2022/03/31 08:01:07;;;;;;;45.88;24.55;;;;;;;4.34;100.00;98586.66;5073507;28;20020;-86
2022/03/31 08:03:32;;;;;;;46.60;25.77;;;;;;;4.36;100.00;98584.81;5073305;28;20028;-86
2022/03/31 08:06:24;;;;;;;44.40;24.65;;;;;;;4.21;99.31;98586.19;5073916;28;20021;-87
2022/03/31 08:08:55;;;;;;;46.20;25.45;;;;;;;4.33;100.00;98587.56;5072933;28;20086;-88
2022/03/31 08:11:21;;;;;;;42.90;22.60;;;;;;;4.24;99.85;98583.44;5074005;28;20020;-87
2022/03/31 08:13:46;;;;;;;45.13;24.48;;;;;;;4.35;99.06;98583.13;5072850;28;20027;-87
2022/03/31 08:16:12;;;;;;;46.25;23.85;;;;;;;4.41;100.00;98578.50;5073262;28;20374;-88
2022/03/31 08:18:38;;;;;;;43.65;23.63;;;;;;;4.42;100.00;98585.53;5074362;28;20035;-87
2022/03/31 08:21:23;;;;;;;43.42;24.05;;;;;;;4.34;100.00;98581.38;5074628;28;20012;-88
2022/03/31 08:23:48;;;;;;;43.53;23.05;;;;;;;4.22;100.00;98582.63;5074421;28;20031;-87
2022/03/31 08:26:14;;;;;;;43.03;23.25;;;;;;;4.29;100.00;98583.28;5074325;28;20028;-88
2022/03/31 08:28:40;;;;;;;44.10;22.90;;;;;;;4.28;100.00;98586.84;5072671;28;20389;-88
2022/03/31 08:31:06;;;;;;;39.70;23.10;;;;;;;4.36;100.00;98590.13;5072816;28;20370;-87
2022/03/31 08:33:31;;;;;;;41.58;21.90;;;;;;;4.25;99.86;98586.97;5074548;28;20032;-86
2022/03/31 08:35:56;;;;;;;39.25;21.58;;;;;;;4.21;99.05;98588.81;5074676;28;20032;-88
2022/03/31 08:38:22;;;;;;;38.85;22.20;;;;;;;4.23;99.61;98583.47;5073979;28;20027;-87
2022/03/31 08:40:47;;;;;;;42.22;22.20;;;;;;;4.13;100.00;98583.78;5072687;28;20012;-87
2022/03/31 08:43:13;;;;;;;44.58;23.40;;;;;;;4.20;100.00;98592.38;5072491;28;20028;-88
2022/03/31 08:45:40;;;;;;;40.28;22.58;;;;;;;4.17;100.00;98589.84;5073079;28;20026;-88
2022/03/31 08:48:07;;;;;;;37.22;20.85;;;;;;;4.15;100.00;98590.81;5074244;28;20103;-87
2022/03/31 08:50:37;;;;;;;38.72;22.08;;;;;;;4.08;100.00;98585.69;5072705;28;20021;-86
2022/03/31 08:53:06;;;;;;;36.25;20.88;;;;;;;4.07;100.00;98594.53;5119830;22;20962;-84
2022/03/31 08:55:55;;;;;;;43.60;20.98;;;;;;;4.10;100.00;98593.56;5080926;28;20067;-83
2022/03/31 08:58:24;;;;;;;41.10;22.13;;;;;;;4.16;100.00;98605.72;5079984;28;20041;-84
2022/03/31 09:01:08;;;;;;;36.80;21.20;;;;;;;4.16;100.00;98595.16;5080297;28;20028;-84
2022/03/31 09:03:39;;;;;;;39.00;22.33;;;;;;;4.16;100.00;98603.94;5078745;28;20063;-84
2022/03/31 09:06:07;;;;;;;43.72;23.67;;;;;;;4.10;100.00;98605.00;5078034;28;20109;-84
2022/03/31 09:08:39;;;;;;;42.97;21.75;;;;;;;4.13;100.00;98604.91;5073645;28;20025;-83
2022/03/31 09:11:09;;;;;;;40.97;22.75;;;;;;;4.13;100.00;98602.28;5075961;28;20031;-83
2022/03/31 09:13:38;;;;;;;40.20;22.58;;;;;;;4.09;100.00;98602.41;5076697;28;20028;-83
2022/03/31 09:16:16;;;;;;;39.33;22.25;;;;;;;4.15;100.00;98601.38;5076122;28;20115;-83
2022/03/31 09:18:43;;;;;;;35.65;20.58;;;;;;;4.21;100.00;98601.16;5076504;28;20035;-83
2022/03/31 09:21:12;;;;;;;36.42;19.58;;;;;;;4.15;100.00;98601.38;5075405;28;20063;-83
2022/03/31 09:23:46;;;;;;;38.17;21.30;;;;;;;4.17;100.00;98610.09;5075646;28;20028;-83
2022/03/31 09:26:27;;;;;;;31.75;18.90;;;;;;;4.11;100.00;98600.59;5076887;28;20079;-84
2022/03/31 09:28:56;;;;;;;35.58;19.40;;;;;;;4.25;100.00;98603.66;5077474;28;20029;-84
2022/03/31 09:31:28;;;;;;;34.20;18.42;;;;;;;4.29;100.00;98604.44;5077108;28;20025;-84
2022/03/31 09:34:00;;;;;;;32.33;18.58;;;;;;;4.36;100.00;98613.03;5077743;28;20500;-83
2022/03/31 09:36:33;;;;;;;27.73;16.15;;;;;;;4.33;100.00;98610.50;5076538;28;20029;-82
2022/03/31 09:39:17;;;;;;;30.05;16.88;;;;;;;4.30;100.00;98600.91;5078349;28;20054;-84
2022/03/31 09:41:54;;;;;;;;;;;;;;;4.29;100.00;98598.28;5087872;28;20032;-83
2022/03/31 09:44:23;;;;;;;25.58;14.00;;;;;;;4.28;100.00;98602.69;5089414;28;19916;-83
2022/03/31 09:46:53;;;;;;;25.90;14.80;;;;;;;4.26;100.00;98599.25;5091783;28;20050;-82
2022/03/31 09:49:40;;;;;;;27.00;15.02;;;;;;;4.24;100.00;98598.44;5090665;28;20091;-83
2022/03/31 09:52:16;;;;;;;25.65;14.45;;;;;;;4.34;100.00;98597.22;5090981;28;20024;-84
2022/03/31 09:54:50;;;;;;;27.58;14.65;;;;;;;4.36;100.00;98598.03;5089970;28;20043;-83
2022/03/31 09:57:51;;;;;;;23.25;14.73;;;;;;;4.47;100.00;98586.25;5090339;28;20028;-83
2022/03/31 10:00:17;;;;;;;25.80;14.68;;;;;;;4.44;99.38;98596.94;5086476;28;20028;-84
2022/03/31 10:02:44;;;;;;;25.55;14.40;;;;;;;4.35;100.00;98588.41;5091302;28;20422;-83
2022/03/31 10:05:15;;;;;;;25.95;14.90;;;;;;;4.35;99.71;98588.41;5089487;28;20020;-84
2022/03/31 10:07:58;;;;;;;27.63;14.05;;;;;;;4.40;100.00;98584.72;5089151;28;20034;-82
2022/03/31 10:10:33;;;;;;;20.98;13.45;;;;;;;4.45;99.78;98588.09;5090468;28;20093;-83
2022/03/31 10:13:23;;;;;;;23.02;14.10;;;;;;;4.44;99.69;98583.72;5087536;28;20109;-84
2022/03/31 10:16:16;;;;;;;23.52;14.43;;;;;;;4.49;97.81;98587.06;5085131;28;20021;-84
2022/03/31 10:18:52;;;;;;;24.55;14.45;;;;;;;4.57;98.84;98592.97;5066822;28;20055;-84
2022/03/31 10:21:29;;;;;;;21.52;13.27;;;;;;;4.60;96.72;98585.84;5082435;28;20111;-83
2022/03/31 10:27:13;;;;;;;23.27;13.77;;;;;;;4.54;94.42;98587.78;5087461;28;20113;-84
2022/03/31 10:29:43;;;;;;;27.02;14.15;;;;;;;4.53;95.54;98587.84;5085822;28;20040;-84
2022/03/31 10:33:04;;;;;;;22.58;13.25;;;;;;;4.62;95.60;98584.03;5088133;28;20025;-84
2022/03/31 10:35:37;;;;;;;21.80;13.05;;;;;;;4.54;94.07;98579.84;5072189;28;20056;-84
2022/03/31 10:38:32;;;;;;;24.52;14.23;;;;;;;4.56;94.71;98583.31;5086388;28;20088;-84
2022/03/31 10:41:08;;;;;;;24.58;13.55;;;;;;;4.60;94.58;98578.78;5087549;28;20016;-85
2022/03/31 10:50:08;;;;;;;23.05;14.00;;;;;;;4.75;92.47;98574.78;5047066;28;20116;-84
2022/03/31 10:52:52;;;;;;;23.25;13.63;;;;;;;4.87;92.73;98581.41;5086905;28;20078;-85
2022/03/31 10:55:34;;;;;;;23.13;14.20;;;;;;;4.91;92.39;98575.13;5078942;28;20418;-83
2022/03/31 10:58:25;;;;;;;25.70;14.50;;;;;;;4.91;91.80;98584.84;5081010;28;20024;-84
2022/03/31 11:01:23;;;;;;;23.75;14.43;;;;;;;4.96;92.59;98582.91;5073751;28;20096;-84
2022/03/31 11:04:02;;;;;;;23.02;14.70;;;;;;;4.93;92.57;98577.69;5081221;28;20128;-84
2022/03/31 11:06:56;;;;;;;24.27;14.80;;;;;;;4.95;92.04;98575.88;5086648;28;20087;-84
2022/03/31 11:09:39;;;;;;;22.45;14.25;;;;;;;5.03;91.64;98565.88;5086199;28;20024;-84
2022/03/31 11:12:28;;;;;;;21.88;13.50;;;;;;;5.23;92.44;98564.31;5086915;28;20042;-84
2022/03/31 11:15:14;;;;;;;25.60;14.85;;;;;;;5.25;89.51;98558.97;5066239;28;20154;-85
2022/03/31 11:18:03;;;;;;;28.77;15.65;;;;;;;5.32;92.35;98567.53;5086146;28;20048;-82
2022/03/31 11:20:47;;;;;;;24.00;14.82;;;;;;;5.41;90.82;98567.19;5086962;28;20048;-84
2022/03/31 11:23:19;;;;;;;26.20;15.80;;;;;;;5.39;89.53;98562.88;5085628;28;20092;-84
2022/03/31 11:25:45;;;;;;;24.27;15.15;;;;;;;5.42;89.19;98558.34;5086561;28;20096;-84
2022/03/31 11:28:29;;;;;;;;;;;;;;;;;;;;;
2022/03/31 11:31:10;;;;;;;21.05;14.23;;;;;;;5.27;90.12;98553.63;5079818;28;20107;-83
2022/03/31 11:33:45;;;;;;;24.38;16.40;;;;;;;5.25;89.92;98559.84;5076349;28;20028;-83
2022/03/31 11:36:21;;;;;;;27.83;16.45;;;;;;;5.27;89.76;98559.78;5081534;28;20069;-84
2022/03/31 11:39:28;;;;;;;22.45;15.02;;;;;;;5.22;90.39;98552.00;5085427;28;20028;-84
2022/03/31 11:42:01;;;;;;;24.92;15.75;;;;;;;5.32;90.54;98547.25;5085076;28;20024;-84
2022/03/31 11:44:47;;;;;;;23.25;16.35;;;;;;;5.53;90.76;98554.44;5085495;28;20020;-84
2022/03/31 11:47:30;;;;;;;24.33;15.35;;;;;;;5.57;87.77;98556.91;5086466;28;20025;-84
2022/03/31 11:50:00;;;;;;;26.20;15.50;;;;;;;5.56;88.74;98551.69;5085552;28;20498;-85
2022/03/31 11:52:41;;;;;;;24.55;15.45;;;;;;;5.46;86.95;98546.72;5086410;28;20478;-85
2022/03/31 11:55:34;;;;;;;22.88;14.60;;;;;;;5.48;87.94;98550.19;5086937;28;20465;-84
2022/03/31 11:58:08;;;;;;;24.08;15.65;;;;;;;5.52;87.12;98536.81;5084056;28;20028;-84
2022/03/31 12:00:48;;;;;;;;;;;;;;;5.61;86.08;98535.63;5085287;28;20021;-85
2022/03/31 12:03:17;;;;;;;21.33;14.73;;;;;;;5.61;85.29;98539.13;5084602;28;19908;-84
2022/03/31 12:05:53;;;;;;;21.98;14.57;;;;;;;5.54;84.96;98537.66;5082563;28;20037;-83